sensor_id;sensor_type;location;lat;lon;timestamp;temperature;humidity
21023;DHT22;10669;51.076;3.714;2022-09-25T00:01:26;12.60;99.90
21023;DHT22;10669;51.076;3.714;2022-09-25T00:03:52;12.70;99.90
21023;DHT22;10669;51.076;3.714;2022-09-25T00:06:21;12.40;99.90
21023;DHT22;10669;51.076;3.714;2022-09-25T00:08:49;12.40;99.90
21023;DHT22;10669;51.076;3.714;2022-09-25T00:11:18;12.30;99.90
21023;DHT22;10669;51.076;3.714;2022-09-25T00:13:45;12.20;99.90
21023;DHT22;10669;51.076;3.714;2022-09-25T00:16:13;12.40;99.90
21023;DHT22;10669;51.076;3.714;2022-09-25T00:18:40;12.50;99.90
21023;DHT22;10669;51.076;3.714;2022-09-25T00:21:26;12.50;99.90
21023;DHT22;10669;51.076;3.714;2022-09-25T00:23:58;12.20;99.90
21023;DHT22;10669;51.076;3.714;2022-09-25T00:26:30;12.20;99.90
21023;DHT22;10669;51.076;3.714;2022-09-25T00:28:59;12.10;99.90
21023;DHT22;10669;51.076;3.714;2022-09-25T00:31:26;12.20;99.90
21023;DHT22;10669;51.076;3.714;2022-09-25T00:34:03;12.00;99.90
21023;DHT22;10669;51.076;3.714;2022-09-25T00:36:29;12.00;99.90
21023;DHT22;10669;51.076;3.714;2022-09-25T00:38:56;11.90;99.90
21023;DHT22;10669;51.076;3.714;2022-09-25T00:41:25;12.00;99.90
21023;DHT22;10669;51.076;3.714;2022-09-25T00:43:54;12.00;99.90
21023;DHT22;10669;51.076;3.714;2022-09-25T00:48:58;11.70;99.90
21023;DHT22;10669;51.076;3.714;2022-09-25T00:51:47;11.60;99.90
21023;DHT22;10669;51.076;3.714;2022-09-25T00:54:33;11.90;99.90
21023;DHT22;10669;51.076;3.714;2022-09-25T00:57:05;11.80;99.90
21023;DHT22;10669;51.076;3.714;2022-09-25T00:59:42;11.90;99.90
21023;DHT22;10669;51.076;3.714;2022-09-25T01:02:13;11.90;99.90
21023;DHT22;10669;51.076;3.714;2022-09-25T01:04:43;12.00;99.90
21023;DHT22;10669;51.076;3.714;2022-09-25T01:07:11;12.10;99.90
21023;DHT22;10669;51.076;3.714;2022-09-25T01:09:38;12.10;99.90
21023;DHT22;10669;51.076;3.714;2022-09-25T01:12:03;12.10;99.90
21023;DHT22;10669;51.076;3.714;2022-09-25T01:14:30;12.00;99.90
21023;DHT22;10669;51.076;3.714;2022-09-25T01:17:09;12.00;99.90
21023;DHT22;10669;51.076;3.714;2022-09-25T01:25:14;12.00;99.90
21023;DHT22;10669;51.076;3.714;2022-09-25T01:30:36;12.00;99.90
21023;DHT22;10669;51.076;3.714;2022-09-25T01:33:13;11.90;99.90
21023;DHT22;10669;51.076;3.714;2022-09-25T01:35:47;11.80;99.90
21023;DHT22;10669;51.076;3.714;2022-09-25T01:38:32;11.60;99.90
21023;DHT22;10669;51.076;3.714;2022-09-25T01:43:44;11.60;99.90
21023;DHT22;10669;51.076;3.714;2022-09-25T01:46:21;11.80;99.90
21023;DHT22;10669;51.076;3.714;2022-09-25T01:48:54;12.00;99.90
21023;DHT22;10669;51.076;3.714;2022-09-25T01:52:05;12.00;99.90
21023;DHT22;10669;51.076;3.714;2022-09-25T01:54:16;12.00;99.90
21023;DHT22;10669;51.076;3.714;2022-09-25T02:02:12;11.50;99.90
21023;DHT22;10669;51.076;3.714;2022-09-25T02:04:50;11.60;99.90
21023;DHT22;10669;51.076;3.714;2022-09-25T02:07:21;11.40;99.90
21023;DHT22;10669;51.076;3.714;2022-09-25T02:09:56;11.50;99.90
21023;DHT22;10669;51.076;3.714;2022-09-25T02:12:36;11.40;99.90
21023;DHT22;10669;51.076;3.714;2022-09-25T02:15:16;11.50;99.90
21023;DHT22;10669;51.076;3.714;2022-09-25T02:17:54;11.50;99.90
21023;DHT22;10669;51.076;3.714;2022-09-25T02:20:41;11.60;99.90
21023;DHT22;10669;51.076;3.714;2022-09-25T02:23:28;11.70;99.90
21023;DHT22;10669;51.076;3.714;2022-09-25T02:26:05;11.60;99.90
21023;DHT22;10669;51.076;3.714;2022-09-25T02:28:31;11.60;99.90
21023;DHT22;10669;51.076;3.714;2022-09-25T02:30:59;11.40;99.90
21023;DHT22;10669;51.076;3.714;2022-09-25T02:33:28;11.30;99.90
21023;DHT22;10669;51.076;3.714;2022-09-25T02:35:55;11.30;99.90
21023;DHT22;10669;51.076;3.714;2022-09-25T02:38:21;11.00;99.90
21023;DHT22;10669;51.076;3.714;2022-09-25T02:40:48;11.00;99.90
21023;DHT22;10669;51.076;3.714;2022-09-25T02:48:35;11.10;99.90
21023;DHT22;10669;51.076;3.714;2022-09-25T02:51:14;11.10;99.90
21023;DHT22;10669;51.076;3.714;2022-09-25T02:53:51;10.90;99.90
21023;DHT22;10669;51.076;3.714;2022-09-25T02:56:40;10.90;99.90
21023;DHT22;10669;51.076;3.714;2022-09-25T02:59:18;10.80;99.90
21023;DHT22;10669;51.076;3.714;2022-09-25T03:01:46;10.90;99.90
21023;DHT22;10669;51.076;3.714;2022-09-25T03:04:13;10.90;99.90
21023;DHT22;10669;51.076;3.714;2022-09-25T03:06:43;10.90;99.90
21023;DHT22;10669;51.076;3.714;2022-09-25T03:09:12;10.80;99.90
21023;DHT22;10669;51.076;3.714;2022-09-25T03:11:40;11.00;99.90
21023;DHT22;10669;51.076;3.714;2022-09-25T03:14:08;11.00;99.90
21023;DHT22;10669;51.076;3.714;2022-09-25T03:19:09;10.90;99.90
21023;DHT22;10669;51.076;3.714;2022-09-25T03:21:36;10.90;99.90
21023;DHT22;10669;51.076;3.714;2022-09-25T03:24:02;10.80;99.90
21023;DHT22;10669;51.076;3.714;2022-09-25T03:26:29;10.60;99.90
21023;DHT22;10669;51.076;3.714;2022-09-25T03:28:56;10.40;99.90
21023;DHT22;10669;51.076;3.714;2022-09-25T03:31:24;10.40;99.90
21023;DHT22;10669;51.076;3.714;2022-09-25T03:33:50;10.40;99.90
21023;DHT22;10669;51.076;3.714;2022-09-25T03:36:20;10.30;99.90
21023;DHT22;10669;51.076;3.714;2022-09-25T03:38:48;10.40;99.90
21023;DHT22;10669;51.076;3.714;2022-09-25T03:41:20;10.40;99.90
21023;DHT22;10669;51.076;3.714;2022-09-25T03:43:48;10.40;99.90
21023;DHT22;10669;51.076;3.714;2022-09-25T03:46:21;10.50;99.90
21023;DHT22;10669;51.076;3.714;2022-09-25T03:48:50;10.20;99.90
21023;DHT22;10669;51.076;3.714;2022-09-25T03:51:20;10.30;99.90
21023;DHT22;10669;51.076;3.714;2022-09-25T03:53:47;10.40;99.90
21023;DHT22;10669;51.076;3.714;2022-09-25T03:56:16;10.50;99.90
21023;DHT22;10669;51.076;3.714;2022-09-25T03:58:43;10.60;99.90
21023;DHT22;10669;51.076;3.714;2022-09-25T04:01:10;10.40;99.90
21023;DHT22;10669;51.076;3.714;2022-09-25T04:03:37;10.50;99.90
21023;DHT22;10669;51.076;3.714;2022-09-25T04:06:06;10.50;99.90
21023;DHT22;10669;51.076;3.714;2022-09-25T04:08:33;10.50;99.90
21023;DHT22;10669;51.076;3.714;2022-09-25T04:11:01;10.50;99.90
21023;DHT22;10669;51.076;3.714;2022-09-25T04:13:32;10.40;99.90
21023;DHT22;10669;51.076;3.714;2022-09-25T04:15:59;10.50;99.90
21023;DHT22;10669;51.076;3.714;2022-09-25T04:18:27;10.70;99.90
21023;DHT22;10669;51.076;3.714;2022-09-25T04:21:00;10.70;99.90
21023;DHT22;10669;51.076;3.714;2022-09-25T04:23:28;10.80;99.90
21023;DHT22;10669;51.076;3.714;2022-09-25T04:25:53;10.90;99.90
21023;DHT22;10669;51.076;3.714;2022-09-25T04:28:20;10.80;99.90
21023;DHT22;10669;51.076;3.714;2022-09-25T04:30:50;11.00;99.90
21023;DHT22;10669;51.076;3.714;2022-09-25T04:33:16;10.90;99.90
21023;DHT22;10669;51.076;3.714;2022-09-25T04:36:01;11.20;99.90
21023;DHT22;10669;51.076;3.714;2022-09-25T04:38:28;11.30;99.90
21023;DHT22;10669;51.076;3.714;2022-09-25T04:40:59;11.60;99.90
21023;DHT22;10669;51.076;3.714;2022-09-25T04:43:29;11.60;99.90
21023;DHT22;10669;51.076;3.714;2022-09-25T04:46:04;11.10;99.90
21023;DHT22;10669;51.076;3.714;2022-09-25T04:48:31;10.90;99.90
21023;DHT22;10669;51.076;3.714;2022-09-25T04:50:57;10.70;99.90
21023;DHT22;10669;51.076;3.714;2022-09-25T04:53:25;10.50;99.90
21023;DHT22;10669;51.076;3.714;2022-09-25T04:55:52;10.60;99.90
21023;DHT22;10669;51.076;3.714;2022-09-25T04:58:20;10.50;99.90
21023;DHT22;10669;51.076;3.714;2022-09-25T05:00:46;10.40;99.90
21023;DHT22;10669;51.076;3.714;2022-09-25T05:03:12;10.50;99.90
21023;DHT22;10669;51.076;3.714;2022-09-25T05:05:38;11.00;99.90
21023;DHT22;10669;51.076;3.714;2022-09-25T05:08:05;11.40;99.90
21023;DHT22;10669;51.076;3.714;2022-09-25T05:10:32;11.50;99.90
21023;DHT22;10669;51.076;3.714;2022-09-25T05:13:04;11.50;99.90
21023;DHT22;10669;51.076;3.714;2022-09-25T05:15:32;11.50;99.90
21023;DHT22;10669;51.076;3.714;2022-09-25T05:18:04;11.50;99.90
21023;DHT22;10669;51.076;3.714;2022-09-25T05:20:30;11.60;99.90
21023;DHT22;10669;51.076;3.714;2022-09-25T05:22:58;11.20;99.90
21023;DHT22;10669;51.076;3.714;2022-09-25T05:25:25;11.30;99.90
21023;DHT22;10669;51.076;3.714;2022-09-25T05:27:56;11.00;99.90
21023;DHT22;10669;51.076;3.714;2022-09-25T05:30:25;11.00;99.90
21023;DHT22;10669;51.076;3.714;2022-09-25T05:32:51;10.70;99.90
21023;DHT22;10669;51.076;3.714;2022-09-25T05:35:20;10.80;99.90
21023;DHT22;10669;51.076;3.714;2022-09-25T05:37:47;10.90;99.90
21023;DHT22;10669;51.076;3.714;2022-09-25T05:40:14;11.20;99.90
21023;DHT22;10669;51.076;3.714;2022-09-25T05:42:41;11.20;99.90
21023;DHT22;10669;51.076;3.714;2022-09-25T05:45:12;11.00;99.90
21023;DHT22;10669;51.076;3.714;2022-09-25T05:47:40;10.90;99.90
21023;DHT22;10669;51.076;3.714;2022-09-25T05:50:09;10.70;99.90
21023;DHT22;10669;51.076;3.714;2022-09-25T05:52:35;10.80;99.90
21023;DHT22;10669;51.076;3.714;2022-09-25T05:55:02;10.80;99.90
21023;DHT22;10669;51.076;3.714;2022-09-25T05:57:31;10.70;99.90
21023;DHT22;10669;51.076;3.714;2022-09-25T05:59:57;10.80;99.90
21023;DHT22;10669;51.076;3.714;2022-09-25T06:02:24;10.80;99.90
21023;DHT22;10669;51.076;3.714;2022-09-25T06:04:50;11.00;99.90
21023;DHT22;10669;51.076;3.714;2022-09-25T06:07:16;11.00;99.90
21023;DHT22;10669;51.076;3.714;2022-09-25T06:09:42;10.90;99.90
21023;DHT22;10669;51.076;3.714;2022-09-25T06:12:08;11.00;99.90
21023;DHT22;10669;51.076;3.714;2022-09-25T06:14:34;10.60;99.90
21023;DHT22;10669;51.076;3.714;2022-09-25T06:17:03;10.50;99.90
21023;DHT22;10669;51.076;3.714;2022-09-25T06:19:29;10.60;99.90
21023;DHT22;10669;51.076;3.714;2022-09-25T06:21:55;10.60;99.90
21023;DHT22;10669;51.076;3.714;2022-09-25T06:24:25;10.60;99.90
21023;DHT22;10669;51.076;3.714;2022-09-25T06:26:50;10.90;99.90
21023;DHT22;10669;51.076;3.714;2022-09-25T06:29:16;10.70;99.90
21023;DHT22;10669;51.076;3.714;2022-09-25T06:31:41;10.60;99.90
21023;DHT22;10669;51.076;3.714;2022-09-25T06:34:08;10.60;99.90
21023;DHT22;10669;51.076;3.714;2022-09-25T06:36:35;10.90;99.90
21023;DHT22;10669;51.076;3.714;2022-09-25T06:39:01;11.30;99.90
21023;DHT22;10669;51.076;3.714;2022-09-25T06:41:27;11.40;99.90
21023;DHT22;10669;51.076;3.714;2022-09-25T06:43:53;11.50;99.90
21023;DHT22;10669;51.076;3.714;2022-09-25T06:46:20;11.40;99.90
21023;DHT22;10669;51.076;3.714;2022-09-25T06:48:50;11.50;99.90
21023;DHT22;10669;51.076;3.714;2022-09-25T06:51:23;11.80;99.90
21023;DHT22;10669;51.076;3.714;2022-09-25T06:53:52;11.90;99.90
21023;DHT22;10669;51.076;3.714;2022-09-25T06:56:20;11.90;99.90
21023;DHT22;10669;51.076;3.714;2022-09-25T06:58:47;12.10;99.90
21023;DHT22;10669;51.076;3.714;2022-09-25T07:01:12;12.20;99.90
21023;DHT22;10669;51.076;3.714;2022-09-25T07:03:39;12.30;99.90
21023;DHT22;10669;51.076;3.714;2022-09-25T07:06:19;12.50;99.90
21023;DHT22;10669;51.076;3.714;2022-09-25T07:08:48;12.60;99.90
21023;DHT22;10669;51.076;3.714;2022-09-25T07:11:20;12.60;99.90
21023;DHT22;10669;51.076;3.714;2022-09-25T07:13:48;12.60;99.90
21023;DHT22;10669;51.076;3.714;2022-09-25T07:16:21;12.70;99.90
21023;DHT22;10669;51.076;3.714;2022-09-25T07:18:47;12.60;99.90
21023;DHT22;10669;51.076;3.714;2022-09-25T07:21:17;12.70;99.90
21023;DHT22;10669;51.076;3.714;2022-09-25T07:23:46;13.00;99.90
21023;DHT22;10669;51.076;3.714;2022-09-25T07:26:17;12.80;99.90
21023;DHT22;10669;51.076;3.714;2022-09-25T07:28:58;12.80;99.90
21023;DHT22;10669;51.076;3.714;2022-09-25T07:31:27;12.30;99.90
21023;DHT22;10669;51.076;3.714;2022-09-25T07:33:54;12.40;99.90
21023;DHT22;10669;51.076;3.714;2022-09-25T07:36:23;12.20;99.90
21023;DHT22;10669;51.076;3.714;2022-09-25T07:38:52;12.10;99.90
21023;DHT22;10669;51.076;3.714;2022-09-25T07:41:20;12.20;99.90
21023;DHT22;10669;51.076;3.714;2022-09-25T07:43:53;12.50;99.90
21023;DHT22;10669;51.076;3.714;2022-09-25T07:46:26;12.90;99.90
21023;DHT22;10669;51.076;3.714;2022-09-25T07:48:53;13.00;99.90
21023;DHT22;10669;51.076;3.714;2022-09-25T07:51:21;13.20;99.90
21023;DHT22;10669;51.076;3.714;2022-09-25T07:53:49;13.40;99.90
21023;DHT22;10669;51.076;3.714;2022-09-25T07:56:19;13.60;99.90
21023;DHT22;10669;51.076;3.714;2022-09-25T07:58:45;13.70;99.90
21023;DHT22;10669;51.076;3.714;2022-09-25T08:01:12;13.80;99.90
21023;DHT22;10669;51.076;3.714;2022-09-25T08:03:39;14.00;99.90
21023;DHT22;10669;51.076;3.714;2022-09-25T08:06:11;14.10;99.90
21023;DHT22;10669;51.076;3.714;2022-09-25T08:08:39;14.10;99.90
21023;DHT22;10669;51.076;3.714;2022-09-25T08:11:08;14.00;99.90
21023;DHT22;10669;51.076;3.714;2022-09-25T08:13:38;13.90;99.90
21023;DHT22;10669;51.076;3.714;2022-09-25T08:16:09;13.80;99.90
21023;DHT22;10669;51.076;3.714;2022-09-25T08:18:39;13.80;99.90
21023;DHT22;10669;51.076;3.714;2022-09-25T08:21:10;13.80;99.90
21023;DHT22;10669;51.076;3.714;2022-09-25T08:23:42;13.80;99.90
21023;DHT22;10669;51.076;3.714;2022-09-25T08:26:09;13.90;99.90
21023;DHT22;10669;51.076;3.714;2022-09-25T08:28:37;14.00;99.90
21023;DHT22;10669;51.076;3.714;2022-09-25T08:31:06;14.20;99.90
21023;DHT22;10669;51.076;3.714;2022-09-25T08:33:36;14.60;99.90
21023;DHT22;10669;51.076;3.714;2022-09-25T08:36:05;14.70;99.90
21023;DHT22;10669;51.076;3.714;2022-09-25T08:38:33;14.80;99.90
21023;DHT22;10669;51.076;3.714;2022-09-25T08:47:15;14.30;99.90
21023;DHT22;10669;51.076;3.714;2022-09-25T08:49:43;14.40;99.90
21023;DHT22;10669;51.076;3.714;2022-09-25T08:52:14;14.50;99.90
21023;DHT22;10669;51.076;3.714;2022-09-25T08:54:43;14.40;99.90
21023;DHT22;10669;51.076;3.714;2022-09-25T08:57:22;14.30;99.90
21023;DHT22;10669;51.076;3.714;2022-09-25T08:59:54;14.10;99.90
21023;DHT22;10669;51.076;3.714;2022-09-25T09:02:40;13.90;99.90
21023;DHT22;10669;51.076;3.714;2022-09-25T09:05:27;13.70;99.90
21023;DHT22;10669;51.076;3.714;2022-09-25T09:08:14;13.50;99.90
21023;DHT22;10669;51.076;3.714;2022-09-25T09:13:34;13.50;99.90
21023;DHT22;10669;51.076;3.714;2022-09-25T09:16:11;13.60;99.90
21023;DHT22;10669;51.076;3.714;2022-09-25T09:18:42;13.60;99.90
21023;DHT22;10669;51.076;3.714;2022-09-25T09:21:32;13.90;99.90
21023;DHT22;10669;51.076;3.714;2022-09-25T09:45:47;14.50;99.90
21023;DHT22;10669;51.076;3.714;2022-09-25T09:48:28;14.80;99.90
21023;DHT22;10669;51.076;3.714;2022-09-25T09:51:32;14.80;99.90
21023;DHT22;10669;51.076;3.714;2022-09-25T09:54:05;14.90;99.90
21023;DHT22;10669;51.076;3.714;2022-09-25T09:56:38;15.00;99.90
21023;DHT22;10669;51.076;3.714;2022-09-25T09:59:18;15.10;99.90
21023;DHT22;10669;51.076;3.714;2022-09-25T10:02:00;15.30;99.90
21023;DHT22;10669;51.076;3.714;2022-09-25T10:04:34;15.60;99.90
21023;DHT22;10669;51.076;3.714;2022-09-25T10:07:16;15.60;99.90
21023;DHT22;10669;51.076;3.714;2022-09-25T10:09:44;15.80;99.90
21023;DHT22;10669;51.076;3.714;2022-09-25T10:14:54;15.80;99.90
21023;DHT22;10669;51.076;3.714;2022-09-25T10:17:24;15.80;99.90
21023;DHT22;10669;51.076;3.714;2022-09-25T10:20:02;16.00;99.90
21023;DHT22;10669;51.076;3.714;2022-09-25T10:22:36;16.20;99.90
21023;DHT22;10669;51.076;3.714;2022-09-25T10:25:05;15.90;99.90
21023;DHT22;10669;51.076;3.714;2022-09-25T10:30:17;15.90;99.90
21023;DHT22;10669;51.076;3.714;2022-09-25T10:35:41;15.40;99.90
21023;DHT22;10669;51.076;3.714;2022-09-25T10:38:21;15.20;99.90
21023;DHT22;10669;51.076;3.714;2022-09-25T10:41:02;15.20;99.90
21023;DHT22;10669;51.076;3.714;2022-09-25T10:43:29;15.50;99.90
21023;DHT22;10669;51.076;3.714;2022-09-25T10:46:06;15.40;99.90
21023;DHT22;10669;51.076;3.714;2022-09-25T10:48:35;15.60;99.90
21023;DHT22;10669;51.076;3.714;2022-09-25T10:51:21;15.90;99.90
21023;DHT22;10669;51.076;3.714;2022-09-25T10:53:49;15.90;99.90
21023;DHT22;10669;51.076;3.714;2022-09-25T10:56:36;16.00;99.90
21023;DHT22;10669;51.076;3.714;2022-09-25T10:59:24;16.00;99.90
21023;DHT22;10669;51.076;3.714;2022-09-25T11:01:52;16.10;99.90
21023;DHT22;10669;51.076;3.714;2022-09-25T11:04:31;16.20;99.90
21023;DHT22;10669;51.076;3.714;2022-09-25T11:07:01;16.30;99.90
21023;DHT22;10669;51.076;3.714;2022-09-25T11:09:31;16.40;99.90
21023;DHT22;10669;51.076;3.714;2022-09-25T11:12:14;16.50;99.90
21023;DHT22;10669;51.076;3.714;2022-09-25T11:14:54;16.50;99.90
21023;DHT22;10669;51.076;3.714;2022-09-25T11:22:49;16.40;99.90
21023;DHT22;10669;51.076;3.714;2022-09-25T11:25:25;16.80;99.90
21023;DHT22;10669;51.076;3.714;2022-09-25T11:27:57;16.70;99.90
21023;DHT22;10669;51.076;3.714;2022-09-25T11:30:36;16.80;99.90
21023;DHT22;10669;51.076;3.714;2022-09-25T11:36:23;17.30;99.90
21023;DHT22;10669;51.076;3.714;2022-09-25T11:38:55;18.00;99.90
21023;DHT22;10669;51.076;3.714;2022-09-25T11:41:50;18.10;99.90
21023;DHT22;10669;51.076;3.714;2022-09-25T11:44:53;17.80;99.90
21023;DHT22;10669;51.076;3.714;2022-09-25T11:50:15;18.00;99.90
21023;DHT22;10669;51.076;3.714;2022-09-25T11:55:46;16.70;99.90
21023;DHT22;10669;51.076;3.714;2022-09-25T12:01:03;16.50;99.90
21023;DHT22;10669;51.076;3.714;2022-09-25T12:18:24;16.10;99.90
21023;DHT22;10669;51.076;3.714;2022-09-25T12:20:56;16.20;99.90
21023;DHT22;10669;51.076;3.714;2022-09-25T12:23:30;16.40;99.90
21023;DHT22;10669;51.076;3.714;2022-09-25T12:26:08;16.40;99.90
21023;DHT22;10669;51.076;3.714;2022-09-25T12:40:30;17.50;99.90
21023;DHT22;10669;51.076;3.714;2022-09-25T12:51:00;17.20;99.90
21023;DHT22;10669;51.076;3.714;2022-09-25T12:53:48;17.50;99.90
21023;DHT22;10669;51.076;3.714;2022-09-25T12:56:32;17.50;99.90
21023;DHT22;10669;51.076;3.714;2022-09-25T12:59:41;17.40;99.90
21023;DHT22;10669;51.076;3.714;2022-09-25T13:11:04;18.50;99.90
21023;DHT22;10669;51.076;3.714;2022-09-25T13:13:36;18.00;99.90
21023;DHT22;10669;51.076;3.714;2022-09-25T13:16:05;17.50;99.90
21023;DHT22;10669;51.076;3.714;2022-09-25T13:18:34;17.30;99.90
21023;DHT22;10669;51.076;3.714;2022-09-25T13:21:34;17.20;99.90
21023;DHT22;10669;51.076;3.714;2022-09-25T13:24:05;17.20;99.90
21023;DHT22;10669;51.076;3.714;2022-09-25T13:26:46;17.00;99.90
21023;DHT22;10669;51.076;3.714;2022-09-25T13:29:34;17.10;99.90
21023;DHT22;10669;51.076;3.714;2022-09-25T13:34:40;16.60;99.90
21023;DHT22;10669;51.076;3.714;2022-09-25T13:37:14;16.50;99.90
21023;DHT22;10669;51.076;3.714;2022-09-25T13:39:48;16.60;99.90
21023;DHT22;10669;51.076;3.714;2022-09-25T13:42:40;16.80;99.90
21023;DHT22;10669;51.076;3.714;2022-09-25T13:45:27;17.40;99.90
21023;DHT22;10669;51.076;3.714;2022-09-25T13:50:27;17.30;99.90
21023;DHT22;10669;51.076;3.714;2022-09-25T14:03:46;17.60;99.90
21023;DHT22;10669;51.076;3.714;2022-09-25T14:06:22;17.60;99.90
21023;DHT22;10669;51.076;3.714;2022-09-25T14:08:49;17.60;99.90
21023;DHT22;10669;51.076;3.714;2022-09-25T14:11:20;17.70;99.90
21023;DHT22;10669;51.076;3.714;2022-09-25T14:13:50;17.70;99.90
21023;DHT22;10669;51.076;3.714;2022-09-25T14:16:36;18.10;99.90
21023;DHT22;10669;51.076;3.714;2022-09-25T14:19:07;17.70;99.90
21023;DHT22;10669;51.076;3.714;2022-09-25T14:21:33;17.70;99.90
21023;DHT22;10669;51.076;3.714;2022-09-25T14:24:33;17.20;99.90
21023;DHT22;10669;51.076;3.714;2022-09-25T14:27:01;17.00;99.90
21023;DHT22;10669;51.076;3.714;2022-09-25T14:29:30;16.80;99.90
21023;DHT22;10669;51.076;3.714;2022-09-25T14:34:40;17.30;99.90
21023;DHT22;10669;51.076;3.714;2022-09-25T14:40:17;17.70;99.90
21023;DHT22;10669;51.076;3.714;2022-09-25T14:43:03;18.50;99.90
21023;DHT22;10669;51.076;3.714;2022-09-25T14:48:49;19.50;99.90
21023;DHT22;10669;51.076;3.714;2022-09-25T14:51:15;20.30;99.90
21023;DHT22;10669;51.076;3.714;2022-09-25T14:53:57;20.90;99.90
21023;DHT22;10669;51.076;3.714;2022-09-25T14:56:25;21.10;99.90
21023;DHT22;10669;51.076;3.714;2022-09-25T14:58:56;21.10;99.90
21023;DHT22;10669;51.076;3.714;2022-09-25T15:01:28;20.80;99.90
21023;DHT22;10669;51.076;3.714;2022-09-25T15:03:59;19.90;99.90
21023;DHT22;10669;51.076;3.714;2022-09-25T15:06:38;19.00;99.90
21023;DHT22;10669;51.076;3.714;2022-09-25T15:09:35;18.90;99.90
21023;DHT22;10669;51.076;3.714;2022-09-25T15:15:06;18.40;99.90
21023;DHT22;10669;51.076;3.714;2022-09-25T15:17:36;18.00;99.90
21023;DHT22;10669;51.076;3.714;2022-09-25T15:20:13;17.70;99.90
21023;DHT22;10669;51.076;3.714;2022-09-25T15:22:42;17.80;99.90
21023;DHT22;10669;51.076;3.714;2022-09-25T15:25:22;17.70;99.90
21023;DHT22;10669;51.076;3.714;2022-09-25T15:27:48;17.60;99.90
21023;DHT22;10669;51.076;3.714;2022-09-25T15:30:18;17.30;99.90
21023;DHT22;10669;51.076;3.714;2022-09-25T15:32:46;17.30;99.90
21023;DHT22;10669;51.076;3.714;2022-09-25T15:35:24;17.60;99.90
21023;DHT22;10669;51.076;3.714;2022-09-25T15:38:11;17.50;99.90
21023;DHT22;10669;51.076;3.714;2022-09-25T15:40:53;17.60;99.90
21023;DHT22;10669;51.076;3.714;2022-09-25T15:43:22;17.30;99.90
21023;DHT22;10669;51.076;3.714;2022-09-25T15:45:53;17.30;99.90
21023;DHT22;10669;51.076;3.714;2022-09-25T15:48:30;17.00;99.90
21023;DHT22;10669;51.076;3.714;2022-09-25T15:51:03;17.10;99.90
21023;DHT22;10669;51.076;3.714;2022-09-25T15:53:35;17.10;99.90
21023;DHT22;10669;51.076;3.714;2022-09-25T15:56:23;17.10;99.90
21023;DHT22;10669;51.076;3.714;2022-09-25T15:58:59;17.00;99.90
21023;DHT22;10669;51.076;3.714;2022-09-25T16:01:32;16.80;99.90
21023;DHT22;10669;51.076;3.714;2022-09-25T16:04:21;16.90;99.90
21023;DHT22;10669;51.076;3.714;2022-09-25T16:07:31;17.20;99.90
21023;DHT22;10669;51.076;3.714;2022-09-25T16:12:48;17.00;99.90
21023;DHT22;10669;51.076;3.714;2022-09-25T16:17:57;16.50;99.90
21023;DHT22;10669;51.076;3.714;2022-09-25T16:20:33;16.40;99.90
21023;DHT22;10669;51.076;3.714;2022-09-25T16:23:05;16.20;99.90
21023;DHT22;10669;51.076;3.714;2022-09-25T16:25:36;16.10;99.90
21023;DHT22;10669;51.076;3.714;2022-09-25T16:28:15;16.00;99.90
21023;DHT22;10669;51.076;3.714;2022-09-25T16:30:47;16.10;99.90
21023;DHT22;10669;51.076;3.714;2022-09-25T16:33:25;16.20;99.90
21023;DHT22;10669;51.076;3.714;2022-09-25T16:35:53;16.30;99.90
21023;DHT22;10669;51.076;3.714;2022-09-25T16:38:31;16.10;99.90
21023;DHT22;10669;51.076;3.714;2022-09-25T16:41:05;16.00;99.90
21023;DHT22;10669;51.076;3.714;2022-09-25T16:43:34;15.90;99.90
21023;DHT22;10669;51.076;3.714;2022-09-25T16:46:18;15.90;99.90
21023;DHT22;10669;51.076;3.714;2022-09-25T16:48:57;16.00;99.90
21023;DHT22;10669;51.076;3.714;2022-09-25T16:51:26;16.30;99.90
21023;DHT22;10669;51.076;3.714;2022-09-25T16:53:57;16.10;99.90
21023;DHT22;10669;51.076;3.714;2022-09-25T16:56:26;15.90;99.90
21023;DHT22;10669;51.076;3.714;2022-09-25T16:58:55;16.10;99.90
21023;DHT22;10669;51.076;3.714;2022-09-25T17:01:24;16.40;99.90
21023;DHT22;10669;51.076;3.714;2022-09-25T17:03:52;16.10;99.90
21023;DHT22;10669;51.076;3.714;2022-09-25T17:06:22;15.80;99.90
21023;DHT22;10669;51.076;3.714;2022-09-25T17:08:54;15.70;99.90
21023;DHT22;10669;51.076;3.714;2022-09-25T17:11:24;15.70;99.90
21023;DHT22;10669;51.076;3.714;2022-09-25T17:13:51;15.50;99.90
21023;DHT22;10669;51.076;3.714;2022-09-25T17:16:17;15.40;99.90
21023;DHT22;10669;51.076;3.714;2022-09-25T17:18:44;15.30;99.90
21023;DHT22;10669;51.076;3.714;2022-09-25T17:21:13;15.50;99.90
21023;DHT22;10669;51.076;3.714;2022-09-25T17:23:41;15.80;99.90
21023;DHT22;10669;51.076;3.714;2022-09-25T17:26:33;15.80;99.90
21023;DHT22;10669;51.076;3.714;2022-09-25T17:28:58;15.90;99.90
21023;DHT22;10669;51.076;3.714;2022-09-25T17:31:25;16.30;99.90
21023;DHT22;10669;51.076;3.714;2022-09-25T17:33:52;16.20;99.90
21023;DHT22;10669;51.076;3.714;2022-09-25T17:36:18;16.30;99.90
21023;DHT22;10669;51.076;3.714;2022-09-25T17:38:44;16.30;99.90
21023;DHT22;10669;51.076;3.714;2022-09-25T17:41:28;16.10;99.90
21023;DHT22;10669;51.076;3.714;2022-09-25T17:43:57;16.10;99.90
21023;DHT22;10669;51.076;3.714;2022-09-25T17:46:24;16.00;99.90
21023;DHT22;10669;51.076;3.714;2022-09-25T17:48:53;15.70;99.90
21023;DHT22;10669;51.076;3.714;2022-09-25T17:51:22;16.00;99.90
21023;DHT22;10669;51.076;3.714;2022-09-25T17:53:48;16.20;99.90
21023;DHT22;10669;51.076;3.714;2022-09-25T17:56:14;16.20;99.90
21023;DHT22;10669;51.076;3.714;2022-09-25T17:58:40;16.00;99.90
21023;DHT22;10669;51.076;3.714;2022-09-25T18:01:14;15.90;99.90
21023;DHT22;10669;51.076;3.714;2022-09-25T18:03:53;15.90;99.90
21023;DHT22;10669;51.076;3.714;2022-09-25T18:06:19;16.00;99.90
21023;DHT22;10669;51.076;3.714;2022-09-25T18:08:50;16.10;99.90
21023;DHT22;10669;51.076;3.714;2022-09-25T18:11:19;16.20;99.90
21023;DHT22;10669;51.076;3.714;2022-09-25T18:13:46;16.20;99.90
21023;DHT22;10669;51.076;3.714;2022-09-25T18:16:26;16.00;99.90
21023;DHT22;10669;51.076;3.714;2022-09-25T18:18:52;15.90;99.90
21023;DHT22;10669;51.076;3.714;2022-09-25T18:21:36;16.00;99.90
21023;DHT22;10669;51.076;3.714;2022-09-25T18:24:22;15.60;99.90
21023;DHT22;10669;51.076;3.714;2022-09-25T18:26:51;15.70;99.90
21023;DHT22;10669;51.076;3.714;2022-09-25T18:29:18;15.80;99.90
21023;DHT22;10669;51.076;3.714;2022-09-25T18:31:46;15.60;99.90
21023;DHT22;10669;51.076;3.714;2022-09-25T18:34:13;15.60;99.90
21023;DHT22;10669;51.076;3.714;2022-09-25T18:36:40;15.70;99.90
21023;DHT22;10669;51.076;3.714;2022-09-25T18:39:11;15.20;99.90
21023;DHT22;10669;51.076;3.714;2022-09-25T18:41:38;15.30;99.90